sensor_id;sensor_type;location;lat;lon;timestamp;temperature;humidity
46732;DHT22;32477;51.474;5.696;2022-09-03T00:01:26;15.80;89.60
46732;DHT22;32477;51.474;5.696;2022-09-03T00:04:01;15.70;90.00
46732;DHT22;32477;51.474;5.696;2022-09-03T00:06:32;15.70;90.10
46732;DHT22;32477;51.474;5.696;2022-09-03T00:12:28;15.60;90.30
46732;DHT22;32477;51.474;5.696;2022-09-03T00:14:43;15.60;90.50
46732;DHT22;32477;51.474;5.696;2022-09-03T00:17:15;15.60;90.60
46732;DHT22;32477;51.474;5.696;2022-09-03T00:20:05;15.50;90.60
46732;DHT22;32477;51.474;5.696;2022-09-03T00:22:59;15.60;90.50
46732;DHT22;32477;51.474;5.696;2022-09-03T00:25:43;15.70;90.40
46732;DHT22;32477;51.474;5.696;2022-09-03T00:28:17;15.60;90.60
46732;DHT22;32477;51.474;5.696;2022-09-03T00:30:45;15.60;90.60
46732;DHT22;32477;51.474;5.696;2022-09-03T00:33:22;15.70;90.30
46732;DHT22;32477;51.474;5.696;2022-09-03T00:36:07;15.80;90.20
46732;DHT22;32477;51.474;5.696;2022-09-03T00:38:36;15.90;90.00
46732;DHT22;32477;51.474;5.696;2022-09-03T00:41:29;15.90;90.00
46732;DHT22;32477;51.474;5.696;2022-09-03T00:50:06;15.70;90.20
46732;DHT22;32477;51.474;5.696;2022-09-03T01:01:28;15.90;89.70
46732;DHT22;32477;51.474;5.696;2022-09-03T01:07:40;15.80;90.00
46732;DHT22;32477;51.474;5.696;2022-09-03T01:10:27;15.70;90.30
46732;DHT22;32477;51.474;5.696;2022-09-03T01:13:12;15.70;90.20
46732;DHT22;32477;51.474;5.696;2022-09-03T01:16:07;15.60;90.20
46732;DHT22;32477;51.474;5.696;2022-09-03T01:30:37;15.50;90.60
46732;DHT22;32477;51.474;5.696;2022-09-03T01:36:12;15.60;90.60
46732;DHT22;32477;51.474;5.696;2022-09-03T01:38:49;15.60;90.30
46732;DHT22;32477;51.474;5.696;2022-09-03T01:44:41;15.70;90.30
46732;DHT22;32477;51.474;5.696;2022-09-03T01:52:51;15.60;90.30
46732;DHT22;32477;51.474;5.696;2022-09-03T01:55:32;15.50;90.50
46732;DHT22;32477;51.474;5.696;2022-09-03T01:58:16;15.40;90.60
46732;DHT22;32477;51.474;5.696;2022-09-03T02:00:52;15.30;91.00
46732;DHT22;32477;51.474;5.696;2022-09-03T02:03:22;15.20;91.50
46732;DHT22;32477;51.474;5.696;2022-09-03T02:05:48;15.10;91.40
46732;DHT22;32477;51.474;5.696;2022-09-03T02:08:20;15.10;91.60
46732;DHT22;32477;51.474;5.696;2022-09-03T02:10:49;15.00;91.70
46732;DHT22;32477;51.474;5.696;2022-09-03T02:13:27;15.00;91.90
46732;DHT22;32477;51.474;5.696;2022-09-03T02:15:58;14.90;92.00
46732;DHT22;32477;51.474;5.696;2022-09-03T02:18:31;14.80;92.20
46732;DHT22;32477;51.474;5.696;2022-09-03T02:20:58;14.80;92.30
46732;DHT22;32477;51.474;5.696;2022-09-03T02:23:26;14.70;92.50
46732;DHT22;32477;51.474;5.696;2022-09-03T02:26:00;14.70;92.60
46732;DHT22;32477;51.474;5.696;2022-09-03T02:28:29;14.60;92.80
46732;DHT22;32477;51.474;5.696;2022-09-03T02:30:56;14.50;93.10
46732;DHT22;32477;51.474;5.696;2022-09-03T02:33:22;14.40;93.30
46732;DHT22;32477;51.474;5.696;2022-09-03T02:35:47;14.40;93.40
46732;DHT22;32477;51.474;5.696;2022-09-03T02:38:22;14.30;93.50
46732;DHT22;32477;51.474;5.696;2022-09-03T02:40:50;14.30;93.70
46732;DHT22;32477;51.474;5.696;2022-09-03T02:43:23;14.30;93.90
46732;DHT22;32477;51.474;5.696;2022-09-03T02:45:54;14.30;93.80
46732;DHT22;32477;51.474;5.696;2022-09-03T02:48:23;14.30;93.90
46732;DHT22;32477;51.474;5.696;2022-09-03T02:50:49;14.30;94.00
46732;DHT22;32477;51.474;5.696;2022-09-03T02:53:14;14.40;93.90
46732;DHT22;32477;51.474;5.696;2022-09-03T02:55:40;14.40;94.00
46732;DHT22;32477;51.474;5.696;2022-09-03T02:58:06;14.40;94.00
46732;DHT22;32477;51.474;5.696;2022-09-03T03:00:33;14.30;94.20
46732;DHT22;32477;51.474;5.696;2022-09-03T03:03:01;14.40;94.30
46732;DHT22;32477;51.474;5.696;2022-09-03T03:05:47;14.40;94.10
46732;DHT22;32477;51.474;5.696;2022-09-03T03:08:14;14.40;94.30
46732;DHT22;32477;51.474;5.696;2022-09-03T03:10:41;14.40;94.20
46732;DHT22;32477;51.474;5.696;2022-09-03T03:13:09;14.30;94.20
46732;DHT22;32477;51.474;5.696;2022-09-03T03:15:36;14.30;94.40
46732;DHT22;32477;51.474;5.696;2022-09-03T03:18:01;14.40;94.50
46732;DHT22;32477;51.474;5.696;2022-09-03T03:20:27;14.40;94.50
46732;DHT22;32477;51.474;5.696;2022-09-03T03:22:53;14.40;94.50
46732;DHT22;32477;51.474;5.696;2022-09-03T03:25:18;14.30;94.60
46732;DHT22;32477;51.474;5.696;2022-09-03T03:27:44;14.40;94.60
46732;DHT22;32477;51.474;5.696;2022-09-03T03:30:11;14.40;94.60
46732;DHT22;32477;51.474;5.696;2022-09-03T03:32:37;14.30;94.80
46732;DHT22;32477;51.474;5.696;2022-09-03T03:35:04;14.20;95.00
46732;DHT22;32477;51.474;5.696;2022-09-03T03:37:31;14.20;95.20
46732;DHT22;32477;51.474;5.696;2022-09-03T03:39:57;14.20;95.40
46732;DHT22;32477;51.474;5.696;2022-09-03T03:42:23;14.20;95.40
46732;DHT22;32477;51.474;5.696;2022-09-03T03:44:48;14.20;95.40
46732;DHT22;32477;51.474;5.696;2022-09-03T03:47:14;14.30;95.40
46732;DHT22;32477;51.474;5.696;2022-09-03T03:49:41;14.30;95.10
46732;DHT22;32477;51.474;5.696;2022-09-03T03:52:07;14.40;95.10
46732;DHT22;32477;51.474;5.696;2022-09-03T03:54:33;14.40;94.90
46732;DHT22;32477;51.474;5.696;2022-09-03T03:56:58;14.40;94.90
46732;DHT22;32477;51.474;5.696;2022-09-03T03:59:24;14.30;95.10
46732;DHT22;32477;51.474;5.696;2022-09-03T04:01:50;14.40;95.10
46732;DHT22;32477;51.474;5.696;2022-09-03T04:04:16;14.30;95.40
46732;DHT22;32477;51.474;5.696;2022-09-03T04:06:42;14.30;95.50
46732;DHT22;32477;51.474;5.696;2022-09-03T04:09:07;14.30;95.70
46732;DHT22;32477;51.474;5.696;2022-09-03T04:11:33;14.20;95.70
46732;DHT22;32477;51.474;5.696;2022-09-03T04:13:59;14.20;96.00
46732;DHT22;32477;51.474;5.696;2022-09-03T04:16:26;14.30;95.90
46732;DHT22;32477;51.474;5.696;2022-09-03T04:18:53;14.30;95.80
46732;DHT22;32477;51.474;5.696;2022-09-03T04:21:29;14.30;95.70
46732;DHT22;32477;51.474;5.696;2022-09-03T04:23:56;14.30;95.90
46732;DHT22;32477;51.474;5.696;2022-09-03T04:26:26;14.30;96.00
46732;DHT22;32477;51.474;5.696;2022-09-03T04:28:56;14.40;95.90
46732;DHT22;32477;51.474;5.696;2022-09-03T04:31:22;14.40;95.90
46732;DHT22;32477;51.474;5.696;2022-09-03T04:33:47;14.40;96.00
46732;DHT22;32477;51.474;5.696;2022-09-03T04:36:16;14.30;96.10
46732;DHT22;32477;51.474;5.696;2022-09-03T04:38:43;14.40;96.00
46732;DHT22;32477;51.474;5.696;2022-09-03T04:41:11;14.40;96.00
46732;DHT22;32477;51.474;5.696;2022-09-03T04:43:37;14.50;96.00
46732;DHT22;32477;51.474;5.696;2022-09-03T04:46:05;14.50;95.80
46732;DHT22;32477;51.474;5.696;2022-09-03T04:48:32;14.50;95.90
46732;DHT22;32477;51.474;5.696;2022-09-03T04:51:13;14.50;95.80
46732;DHT22;32477;51.474;5.696;2022-09-03T04:53:43;14.50;95.80
46732;DHT22;32477;51.474;5.696;2022-09-03T04:56:19;14.50;95.80
46732;DHT22;32477;51.474;5.696;2022-09-03T04:58:46;14.40;95.70
46732;DHT22;32477;51.474;5.696;2022-09-03T05:01:17;14.40;95.80
46732;DHT22;32477;51.474;5.696;2022-09-03T05:03:44;14.40;96.10
46732;DHT22;32477;51.474;5.696;2022-09-03T05:06:10;14.40;95.90
46732;DHT22;32477;51.474;5.696;2022-09-03T05:08:36;14.40;95.90
46732;DHT22;32477;51.474;5.696;2022-09-03T05:11:06;14.50;95.90
46732;DHT22;32477;51.474;5.696;2022-09-03T05:13:33;14.50;96.00
46732;DHT22;32477;51.474;5.696;2022-09-03T05:16:04;14.60;96.00
46732;DHT22;32477;51.474;5.696;2022-09-03T05:18:31;14.60;96.00
46732;DHT22;32477;51.474;5.696;2022-09-03T05:21:16;14.70;96.10
46732;DHT22;32477;51.474;5.696;2022-09-03T05:23:43;14.70;96.00
46732;DHT22;32477;51.474;5.696;2022-09-03T05:26:15;14.70;96.00
46732;DHT22;32477;51.474;5.696;2022-09-03T05:28:42;14.80;95.90
46732;DHT22;32477;51.474;5.696;2022-09-03T05:31:15;15.00;95.60
46732;DHT22;32477;51.474;5.696;2022-09-03T05:33:46;15.10;95.40
46732;DHT22;32477;51.474;5.696;2022-09-03T05:36:13;15.20;95.20
46732;DHT22;32477;51.474;5.696;2022-09-03T05:38:40;15.30;94.80
46732;DHT22;32477;51.474;5.696;2022-09-03T05:41:08;15.50;94.60
46732;DHT22;32477;51.474;5.696;2022-09-03T05:43:35;15.70;94.30
46732;DHT22;32477;51.474;5.696;2022-09-03T05:46:03;15.80;94.00
46732;DHT22;32477;51.474;5.696;2022-09-03T05:48:29;15.90;93.60
46732;DHT22;32477;51.474;5.696;2022-09-03T05:53:26;16.30;93.00
46732;DHT22;32477;51.474;5.696;2022-09-03T05:55:59;16.60;92.50
46732;DHT22;32477;51.474;5.696;2022-09-03T05:58:29;17.10;91.50
46732;DHT22;32477;51.474;5.696;2022-09-03T06:00:55;17.70;90.90
46732;DHT22;32477;51.474;5.696;2022-09-03T06:03:20;18.40;89.70
46732;DHT22;32477;51.474;5.696;2022-09-03T06:05:53;18.80;88.10
46732;DHT22;32477;51.474;5.696;2022-09-03T06:08:20;19.10;86.60
46732;DHT22;32477;51.474;5.696;2022-09-03T06:10:46;19.60;85.40
46732;DHT22;32477;51.474;5.696;2022-09-03T06:13:12;19.90;84.60
46732;DHT22;32477;51.474;5.696;2022-09-03T06:15:37;20.30;83.10
46732;DHT22;32477;51.474;5.696;2022-09-03T06:18:04;20.40;82.50
46732;DHT22;32477;51.474;5.696;2022-09-03T06:20:29;20.60;81.70
46732;DHT22;32477;51.474;5.696;2022-09-03T06:22:59;20.90;80.80
46732;DHT22;32477;51.474;5.696;2022-09-03T06:25:25;20.90;80.30
46732;DHT22;32477;51.474;5.696;2022-09-03T06:27:51;21.10;79.40
46732;DHT22;32477;51.474;5.696;2022-09-03T06:30:17;21.20;79.20
46732;DHT22;32477;51.474;5.696;2022-09-03T06:32:47;21.20;78.90
46732;DHT22;32477;51.474;5.696;2022-09-03T06:35:14;21.30;79.20
46732;DHT22;32477;51.474;5.696;2022-09-03T06:37:40;21.30;79.10
46732;DHT22;32477;51.474;5.696;2022-09-03T06:40:07;21.10;79.50
46732;DHT22;32477;51.474;5.696;2022-09-03T06:42:41;21.20;79.20
46732;DHT22;32477;51.474;5.696;2022-09-03T06:45:08;20.80;79.50
46732;DHT22;32477;51.474;5.696;2022-09-03T06:47:33;20.30;80.70
46732;DHT22;32477;51.474;5.696;2022-09-03T06:49:59;20.10;81.50
46732;DHT22;32477;51.474;5.696;2022-09-03T06:52:26;20.20;81.70
46732;DHT22;32477;51.474;5.696;2022-09-03T06:54:52;19.90;82.10
46732;DHT22;32477;51.474;5.696;2022-09-03T06:57:18;20.10;82.20
46732;DHT22;32477;51.474;5.696;2022-09-03T06:59:43;21.10;80.70
46732;DHT22;32477;51.474;5.696;2022-09-03T07:02:09;22.00;78.20
46732;DHT22;32477;51.474;5.696;2022-09-03T07:04:35;22.40;77.60
46732;DHT22;32477;51.474;5.696;2022-09-03T07:07:01;22.60;76.40
46732;DHT22;32477;51.474;5.696;2022-09-03T07:09:26;22.60;76.30
46732;DHT22;32477;51.474;5.696;2022-09-03T07:11:53;22.80;76.20
46732;DHT22;32477;51.474;5.696;2022-09-03T07:14:19;23.40;75.50
46732;DHT22;32477;51.474;5.696;2022-09-03T07:16:47;23.50;74.90
46732;DHT22;32477;51.474;5.696;2022-09-03T07:19:13;24.00;73.70
46732;DHT22;32477;51.474;5.696;2022-09-03T07:21:39;23.60;73.90
46732;DHT22;32477;51.474;5.696;2022-09-03T07:24:09;23.40;74.20
46732;DHT22;32477;51.474;5.696;2022-09-03T07:26:38;23.40;74.80
46732;DHT22;32477;51.474;5.696;2022-09-03T07:29:04;23.50;74.60
46732;DHT22;32477;51.474;5.696;2022-09-03T07:31:34;23.50;74.60
46732;DHT22;32477;51.474;5.696;2022-09-03T07:34:03;23.80;74.00
46732;DHT22;32477;51.474;5.696;2022-09-03T07:36:35;24.00;73.70
46732;DHT22;32477;51.474;5.696;2022-09-03T07:39:03;24.20;72.90
46732;DHT22;32477;51.474;5.696;2022-09-03T07:41:30;24.10;73.30
46732;DHT22;32477;51.474;5.696;2022-09-03T07:43:57;24.50;72.20
46732;DHT22;32477;51.474;5.696;2022-09-03T07:46:25;24.30;72.00
46732;DHT22;32477;51.474;5.696;2022-09-03T07:49:00;24.60;72.20
46732;DHT22;32477;51.474;5.696;2022-09-03T07:51:29;25.10;71.50
46732;DHT22;32477;51.474;5.696;2022-09-03T07:53:56;25.20;71.20
46732;DHT22;32477;51.474;5.696;2022-09-03T07:56:23;25.50;70.50
46732;DHT22;32477;51.474;5.696;2022-09-03T07:58:49;25.70;70.60
46732;DHT22;32477;51.474;5.696;2022-09-03T08:01:17;25.70;69.50
46732;DHT22;32477;51.474;5.696;2022-09-03T08:03:48;26.20;69.90
46732;DHT22;32477;51.474;5.696;2022-09-03T08:06:15;26.60;68.80
46732;DHT22;32477;51.474;5.696;2022-09-03T08:08:42;26.70;68.50
46732;DHT22;32477;51.474;5.696;2022-09-03T08:11:19;27.10;68.20
46732;DHT22;32477;51.474;5.696;2022-09-03T08:13:47;27.20;67.90
46732;DHT22;32477;51.474;5.696;2022-09-03T08:16:17;27.30;67.20
46732;DHT22;32477;51.474;5.696;2022-09-03T08:18:43;26.70;68.00
46732;DHT22;32477;51.474;5.696;2022-09-03T08:21:14;27.10;67.60
46732;DHT22;32477;51.474;5.696;2022-09-03T08:23:42;27.40;67.30
46732;DHT22;32477;51.474;5.696;2022-09-03T08:26:09;27.90;67.30
46732;DHT22;32477;51.474;5.696;2022-09-03T08:28:36;28.20;66.50
46732;DHT22;32477;51.474;5.696;2022-09-03T08:31:08;28.30;65.60
46732;DHT22;32477;51.474;5.696;2022-09-03T08:33:36;28.40;65.70
46732;DHT22;32477;51.474;5.696;2022-09-03T08:36:10;28.60;65.40
46732;DHT22;32477;51.474;5.696;2022-09-03T08:38:41;29.40;65.10
46732;DHT22;32477;51.474;5.696;2022-09-03T08:41:13;29.70;64.50
46732;DHT22;32477;51.474;5.696;2022-09-03T08:44:04;29.50;64.60
46732;DHT22;32477;51.474;5.696;2022-09-03T08:46:43;29.40;64.20
46732;DHT22;32477;51.474;5.696;2022-09-03T08:49:14;29.70;63.80
46732;DHT22;32477;51.474;5.696;2022-09-03T08:51:42;29.90;63.30
46732;DHT22;32477;51.474;5.696;2022-09-03T08:54:10;30.30;62.90
46732;DHT22;32477;51.474;5.696;2022-09-03T08:56:39;30.40;62.50
46732;DHT22;32477;51.474;5.696;2022-09-03T08:59:07;30.40;62.40
46732;DHT22;32477;51.474;5.696;2022-09-03T09:04:58;30.80;62.60
46732;DHT22;32477;51.474;5.696;2022-09-03T09:08:04;30.50;62.00
46732;DHT22;32477;51.474;5.696;2022-09-03T09:10:42;30.30;62.30
46732;DHT22;32477;51.474;5.696;2022-09-03T09:13:23;30.10;61.70
46732;DHT22;32477;51.474;5.696;2022-09-03T09:21:34;30.90;61.20
46732;DHT22;32477;51.474;5.696;2022-09-03T09:24:24;30.80;61.10
46732;DHT22;32477;51.474;5.696;2022-09-03T09:27:09;30.60;60.70
46732;DHT22;32477;51.474;5.696;2022-09-03T09:29:38;30.80;60.40
46732;DHT22;32477;51.474;5.696;2022-09-03T09:32:06;31.00;60.30
46732;DHT22;32477;51.474;5.696;2022-09-03T09:34:37;30.30;61.00
46732;DHT22;32477;51.474;5.696;2022-09-03T09:37:07;30.70;60.70
46732;DHT22;32477;51.474;5.696;2022-09-03T09:39:33;31.20;60.30
46732;DHT22;32477;51.474;5.696;2022-09-03T09:44:40;30.80;61.00
46732;DHT22;32477;51.474;5.696;2022-09-03T09:47:13;31.20;60.20
46732;DHT22;32477;51.474;5.696;2022-09-03T09:49:57;31.00;60.20
46732;DHT22;32477;51.474;5.696;2022-09-03T09:52:25;30.80;60.30
46732;DHT22;32477;51.474;5.696;2022-09-03T09:55:08;31.00;59.80
46732;DHT22;32477;51.474;5.696;2022-09-03T09:57:34;31.00;60.00
46732;DHT22;32477;51.474;5.696;2022-09-03T10:00:07;30.60;60.10
46732;DHT22;32477;51.474;5.696;2022-09-03T10:02:35;30.90;60.30
46732;DHT22;32477;51.474;5.696;2022-09-03T10:05:31;30.60;60.70
46732;DHT22;32477;51.474;5.696;2022-09-03T10:08:19;31.30;59.60
46732;DHT22;32477;51.474;5.696;2022-09-03T10:10:48;32.30;59.50
46732;DHT22;32477;51.474;5.696;2022-09-03T10:13:25;32.30;59.00
46732;DHT22;32477;51.474;5.696;2022-09-03T10:16:00;32.60;58.40
46732;DHT22;32477;51.474;5.696;2022-09-03T10:18:34;32.00;58.70
46732;DHT22;32477;51.474;5.696;2022-09-03T10:26:13;32.80;58.50
46732;DHT22;32477;51.474;5.696;2022-09-03T10:28:42;33.60;58.60
46732;DHT22;32477;51.474;5.696;2022-09-03T10:45:12;32.50;57.90
46732;DHT22;32477;51.474;5.696;2022-09-03T10:48:00;32.00;58.40
46732;DHT22;32477;51.474;5.696;2022-09-03T10:53:29;32.30;57.90
46732;DHT22;32477;51.474;5.696;2022-09-03T11:01:36;32.60;57.20
46732;DHT22;32477;51.474;5.696;2022-09-03T11:07:04;33.10;57.30
46732;DHT22;32477;51.474;5.696;2022-09-03T11:09:55;33.20;57.40
46732;DHT22;32477;51.474;5.696;2022-09-03T11:13:13;32.80;57.90
46732;DHT22;32477;51.474;5.696;2022-09-03T11:15:44;33.20;57.80
46732;DHT22;32477;51.474;5.696;2022-09-03T11:21:10;32.50;57.60
46732;DHT22;32477;51.474;5.696;2022-09-03T11:23:41;33.10;57.80
46732;DHT22;32477;51.474;5.696;2022-09-03T11:26:10;33.30;57.30
46732;DHT22;32477;51.474;5.696;2022-09-03T11:31:23;33.50;57.20
46732;DHT22;32477;51.474;5.696;2022-09-03T11:33:55;33.60;57.00
46732;DHT22;32477;51.474;5.696;2022-09-03T11:36:35;33.00;57.00
46732;DHT22;32477;51.474;5.696;2022-09-03T11:42:02;33.90;57.10
46732;DHT22;32477;51.474;5.696;2022-09-03T11:44:50;34.20;56.60
46732;DHT22;32477;51.474;5.696;2022-09-03T11:49:51;33.50;56.60
46732;DHT22;32477;51.474;5.696;2022-09-03T11:52:29;33.40;56.90
46732;DHT22;32477;51.474;5.696;2022-09-03T11:54:56;33.60;56.80
46732;DHT22;32477;51.474;5.696;2022-09-03T11:57:32;33.90;56.90
46732;DHT22;32477;51.474;5.696;2022-09-03T12:00:13;34.10;56.40
46732;DHT22;32477;51.474;5.696;2022-09-03T12:02:48;33.20;56.70
46732;DHT22;32477;51.474;5.696;2022-09-03T12:19:03;33.90;56.60
46732;DHT22;32477;51.474;5.696;2022-09-03T12:21:37;34.20;56.20
46732;DHT22;32477;51.474;5.696;2022-09-03T12:24:02;34.20;56.40
46732;DHT22;32477;51.474;5.696;2022-09-03T12:26:28;34.30;56.50
46732;DHT22;32477;51.474;5.696;2022-09-03T12:28:56;34.60;57.00
46732;DHT22;32477;51.474;5.696;2022-09-03T12:31:24;34.90;55.90
46732;DHT22;32477;51.474;5.696;2022-09-03T12:36:36;35.10;55.60
46732;DHT22;32477;51.474;5.696;2022-09-03T12:39:18;34.90;55.40
46732;DHT22;32477;51.474;5.696;2022-09-03T12:42:04;34.50;55.80
46732;DHT22;32477;51.474;5.696;2022-09-03T12:44:38;34.60;55.60
46732;DHT22;32477;51.474;5.696;2022-09-03T12:49:39;34.60;55.70
46732;DHT22;32477;51.474;5.696;2022-09-03T12:52:17;34.50;55.80
46732;DHT22;32477;51.474;5.696;2022-09-03T12:57:52;34.40;55.90
46732;DHT22;32477;51.474;5.696;2022-09-03T13:00:29;33.70;55.90
46732;DHT22;32477;51.474;5.696;2022-09-03T13:05:57;34.10;56.40
46732;DHT22;32477;51.474;5.696;2022-09-03T13:08:43;34.00;55.90
46732;DHT22;32477;51.474;5.696;2022-09-03T13:11:15;34.10;56.20
46732;DHT22;32477;51.474;5.696;2022-09-03T13:13:54;33.80;55.80
46732;DHT22;32477;51.474;5.696;2022-09-03T13:30:22;33.10;55.80
46732;DHT22;32477;51.474;5.696;2022-09-03T13:33:08;33.00;56.20
46732;DHT22;32477;51.474;5.696;2022-09-03T13:36:01;33.40;56.00
46732;DHT22;32477;51.474;5.696;2022-09-03T13:40:54;33.90;55.80
46732;DHT22;32477;51.474;5.696;2022-09-03T13:43:44;34.40;55.90
46732;DHT22;32477;51.474;5.696;2022-09-03T13:46:24;34.40;55.60
46732;DHT22;32477;51.474;5.696;2022-09-03T13:48:58;34.50;55.20
46732;DHT22;32477;51.474;5.696;2022-09-03T13:51:50;34.40;55.20
46732;DHT22;32477;51.474;5.696;2022-09-03T13:54:24;33.40;55.60
46732;DHT22;32477;51.474;5.696;2022-09-03T13:57:08;33.10;56.20
46732;DHT22;32477;51.474;5.696;2022-09-03T14:00:08;32.90;56.20
46732;DHT22;32477;51.474;5.696;2022-09-03T14:02:54;33.60;56.10
46732;DHT22;32477;51.474;5.696;2022-09-03T14:16:11;33.10;56.40
46732;DHT22;32477;51.474;5.696;2022-09-03T14:21:09;33.30;55.70
46732;DHT22;32477;51.474;5.696;2022-09-03T14:26:27;34.20;55.30
46732;DHT22;32477;51.474;5.696;2022-09-03T14:28:59;34.20;55.30
46732;DHT22;32477;51.474;5.696;2022-09-03T14:37:45;32.50;57.30
46732;DHT22;32477;51.474;5.696;2022-09-03T14:40:30;31.30;58.30
46732;DHT22;32477;51.474;5.696;2022-09-03T15:02:38;29.40;61.20
46732;DHT22;32477;51.474;5.696;2022-09-03T15:08:23;29.40;61.90
46732;DHT22;32477;51.474;5.696;2022-09-03T15:10:54;29.20;62.40
46732;DHT22;32477;51.474;5.696;2022-09-03T15:15:58;29.00;63.20
46732;DHT22;32477;51.474;5.696;2022-09-03T15:24:34;28.80;64.40
46732;DHT22;32477;51.474;5.696;2022-09-03T15:30:12;28.70;64.70
46732;DHT22;32477;51.474;5.696;2022-09-03T15:37:57;28.40;64.80
46732;DHT22;32477;51.474;5.696;2022-09-03T15:40:28;28.40;65.10
46732;DHT22;32477;51.474;5.696;2022-09-03T15:43:36;28.40;64.90
46732;DHT22;32477;51.474;5.696;2022-09-03T15:46:32;28.20;65.60
46732;DHT22;32477;51.474;5.696;2022-09-03T15:54:49;28.10;66.20
46732;DHT22;32477;51.474;5.696;2022-09-03T15:57:27;28.00;66.00
46732;DHT22;32477;51.474;5.696;2022-09-03T16:00:00;28.00;65.80
46732;DHT22;32477;51.474;5.696;2022-09-03T16:02:44;27.90;65.50
46732;DHT22;32477;51.474;5.696;2022-09-03T16:10:40;27.50;66.80
46732;DHT22;32477;51.474;5.696;2022-09-03T16:13:31;27.50;67.00
46732;DHT22;32477;51.474;5.696;2022-09-03T16:16:05;27.40;67.30
46732;DHT22;32477;51.474;5.696;2022-09-03T16:18:45;27.30;67.20
46732;DHT22;32477;51.474;5.696;2022-09-03T16:21:22;27.10;67.50
46732;DHT22;32477;51.474;5.696;2022-09-03T16:24:23;26.90;68.10
46732;DHT22;32477;51.474;5.696;2022-09-03T16:26:56;26.90;68.20
46732;DHT22;32477;51.474;5.696;2022-09-03T16:29:29;26.80;68.30
46732;DHT22;32477;51.474;5.696;2022-09-03T16:32:11;26.70;68.40
46732;DHT22;32477;51.474;5.696;2022-09-03T16:43:22;26.50;69.40
46732;DHT22;32477;51.474;5.696;2022-09-03T16:56:43;26.10;70.90
46732;DHT22;32477;51.474;5.696;2022-09-03T17:02:07;26.00;71.40
46732;DHT22;32477;51.474;5.696;2022-09-03T17:13:45;25.80;72.20
46732;DHT22;32477;51.474;5.696;2022-09-03T17:19:31;25.70;72.20
46732;DHT22;32477;51.474;5.696;2022-09-03T17:24:35;25.50;73.00
46732;DHT22;32477;51.474;5.696;2022-09-03T17:29:44;25.30;73.60
46732;DHT22;32477;51.474;5.696;2022-09-03T17:49:00;24.60;76.00
46732;DHT22;32477;51.474;5.696;2022-09-03T17:51:34;24.60;76.30
46732;DHT22;32477;51.474;5.696;2022-09-03T17:54:11;24.40;76.60
46732;DHT22;32477;51.474;5.696;2022-09-03T18:04:52;24.00;78.00
46732;DHT22;32477;51.474;5.696;2022-09-03T18:07:28;23.90;78.20
46732;DHT22;32477;51.474;5.696;2022-09-03T18:10:07;23.80;78.40
46732;DHT22;32477;51.474;5.696;2022-09-03T18:13:03;23.80;78.80
46732;DHT22;32477;51.474;5.696;2022-09-03T18:16:00;23.70;79.20
46732;DHT22;32477;51.474;5.696;2022-09-03T18:18:30;23.50;79.50
46732;DHT22;32477;51.474;5.696;2022-09-03T18:20:59;23.40;80.00
46732;DHT22;32477;51.474;5.696;2022-09-03T18:26:56;23.20;80.70
46732;DHT22;32477;51.474;5.696;2022-09-03T18:32:29;23.10;81.30
46732;DHT22;32477;51.474;5.696;2022-09-03T18:35:14;22.90;81.40
46732;DHT22;32477;51.474;5.696;2022-09-03T18:37:58;22.90;81.90
46732;DHT22;32477;51.474;5.696;2022-09-03T18:41:07;22.80;82.10
46732;DHT22;32477;51.474;5.696;2022-09-03T18:44:06;22.60;82.90
46732;DHT22;32477;51.474;5.696;2022-09-03T18:47:19;22.60;83.10
46732;DHT22;32477;51.474;5.696;2022-09-03T18:50:18;22.50;83.50
46732;DHT22;32477;51.474;5.696;2022-09-03T18:53:11;22.50;83.90
46732;DHT22;32477;51.474;5.696;2022-09-03T19:02:06;22.10;85.60
46732;DHT22;32477;51.474;5.696;2022-09-03T19:05:15;22.00;85.50
46732;DHT22;32477;51.474;5.696;2022-09-03T19:08:20;21.90;86.10
46732;DHT22;32477;51.474;5.696;2022-09-03T19:11:18;21.90;86.30
46732;DHT22;32477;51.474;5.696;2022-09-03T19:14:20;21.90;87.40
46732;DHT22;32477;51.474;5.696;2022-09-03T19:17:19;21.80;87.50
46732;DHT22;32477;51.474;5.696;2022-09-03T19:20:17;21.80;88.70
46732;DHT22;32477;51.474;5.696;2022-09-03T19:23:02;21.50;89.10
46732;DHT22;32477;51.474;5.696;2022-09-03T19:25:46;21.40;88.60
46732;DHT22;32477;51.474;5.696;2022-09-03T19:28:35;21.30;89.40
46732;DHT22;32477;51.474;5.696;2022-09-03T19:31:39;21.10;90.00
46732;DHT22;32477;51.474;5.696;2022-09-03T19:37:45;20.80;90.50
46732;DHT22;32477;51.474;5.696;2022-09-03T19:40:56;20.70;90.80
46732;DHT22;32477;51.474;5.696;2022-09-03T19:46:58;20.30;91.20
46732;DHT22;32477;51.474;5.696;2022-09-03T19:52:56;20.00;92.70
46732;DHT22;32477;51.474;5.696;2022-09-03T19:55:45;19.90;92.90
46732;DHT22;32477;51.474;5.696;2022-09-03T19:58:32;19.90;92.90
46732;DHT22;32477;51.474;5.696;2022-09-03T20:01:19;19.80;93.10
46732;DHT22;32477;51.474;5.696;2022-09-03T20:04:14;19.70;94.10
46732;DHT22;32477;51.474;5.696;2022-09-03T20:07:02;19.90;94.80
46732;DHT22;32477;51.474;5.696;2022-09-03T20:09:49;19.90;94.90
46732;DHT22;32477;51.474;5.696;2022-09-03T20:12:38;19.80;95.00
46732;DHT22;32477;51.474;5.696;2022-09-03T20:15:07;19.60;95.60
46732;DHT22;32477;51.474;5.696;2022-09-03T20:20:15;19.50;96.30
46732;DHT22;32477;51.474;5.696;2022-09-03T20:23:02;19.40;97.10
46732;DHT22;32477;51.474;5.696;2022-09-03T20:30:35;19.30;98.60
46732;DHT22;32477;51.474;5.696;2022-09-03T20:36:26;19.20;99.80
46732;DHT22;32477;51.474;5.696;2022-09-03T20:41:34;19.00;99.90
46732;DHT22;32477;51.474;5.696;2022-09-03T20:49:58;19.10;99.90
46732;DHT22;32477;51.474;5.696;2022-09-03T20:53:08;19.10;99.90
46732;DHT22;32477;51.474;5.696;2022-09-03T20:55:43;19.00;99.90
46732;DHT22;32477;51.474;5.696;2022-09-03T20:58:37;18.90;99.90
46732;DHT22;32477;51.474;5.696;2022-09-03T21:01:07;19.00;99.90
46732;DHT22;32477;51.474;5.696;2022-09-03T21:03:46;19.00;99.90
46732;DHT22;32477;51.474;5.696;2022-09-03T21:06:49;19.00;99.90
46732;DHT22;32477;51.474;5.696;2022-09-03T21:09:31;19.00;99.90
46732;DHT22;32477;51.474;5.696;2022-09-03T21:12:31;19.00;99.90
46732;DHT22;32477;51.474;5.696;2022-09-03T21:20:26;19.00;99.90
46732;DHT22;32477;51.474;5.696;2022-09-03T21:23:11;18.90;99.90
46732;DHT22;32477;51.474;5.696;2022-09-03T21:25:43;18.90;99.90
46732;DHT22;32477;51.474;5.696;2022-09-03T21:28:33;18.90;99.90
46732;DHT22;32477;51.474;5.696;2022-09-03T21:31:11;18.90;99.90
46732;DHT22;32477;51.474;5.696;2022-09-03T21:33:39;18.90;99.90
46732;DHT22;32477;51.474;5.696;2022-09-03T21:36:21;18.80;99.90
46732;DHT22;32477;51.474;5.696;2022-09-03T21:38:57;18.90;99.90
46732;DHT22;32477;51.474;5.696;2022-09-03T21:41:35;18.90;99.90
46732;DHT22;32477;51.474;5.696;2022-09-03T21:44:07;18.90;99.90